Marseillais 6 — FQSJ — position and weather

sailwx.info

Track history (hours):
 
Tides and Currents Weather Stations Pressure Air Temp Water Temp Dewpoint Dewpoint Depression Visibility Wind Speed Wind Dir Waves Ship Positions

Marseillais 6

Last reported at 2015-Mar-01 11:33 UTC. Time now 2015-Mar-01 12:32 UTC.
Position N 43°24' E 004°59'.

Length 35 m; draft 5 m.

Type: Tug. MMSI: 227016900.

Date/timePositionNaut miles runAvg speedWind from/ knotsBaromVisibWave heightAir tempDewpointWater temp
2015-Mar-01 11:33N 43°24' E 004°59'0 0.0
2015-Mar-01 10:33N 43°24' E 004°59'0 0.0
2015-Mar-01 09:33N 43°24' E 004°59'0 0.0
2015-Mar-01 08:33N 43°24' E 004°59'0 0.0
2015-Mar-01 07:33N 43°24' E 004°59'0 0.0
2015-Mar-01 06:34N 43°24' E 004°59'6 6.1
2015-Mar-01 05:33N 43°25' E 004°51'3 3.0
2015-Mar-01 04:34N 43°24' E 004°55'3 3.1
2015-Mar-01 03:33N 43°24' E 004°59'0 0.0
2015-Mar-01 02:33N 43°24' E 004°59'0 0.0
2015-Mar-01 01:33N 43°24' E 004°59'0 0.0
2015-Mar-01 00:33N 43°24' E 004°59'0 0.0
2015-Feb-28 23:33N 43°24' E 004°59'0 0.0
2015-Feb-28 22:33N 43°24' E 004°59'0 0.0
2015-Feb-28 21:33N 43°24' E 004°59'0 0.0
2015-Feb-28 20:33N 43°24' E 004°59'0 0.0
2015-Feb-28 19:33N 43°24' E 004°59'0 0.0
2015-Feb-28 18:33N 43°24' E 004°59'2 2.1
2015-Feb-28 17:33N 43°24' E 004°56'3 2.9
2015-Feb-28 16:34N 43°25' E 004°53'3 3.1
2015-Feb-28 15:33N 43°24' E 004°56'2 2.2
2015-Feb-28 14:33N 43°24' E 004°53'4 3.8
2015-Feb-28 13:33N 43°23' E 004°59'1 0.7
2015-Feb-28 12:33N 43°24' E 004°59'0 0.0
2015-Feb-28 11:33N 43°24' E 004°59'0 0.0
2015-Feb-28 10:33N 43°24' E 004°59'0 0.0
2015-Feb-28 09:33N 43°24' E 004°59'0 0.0
2015-Feb-28 08:33N 43°24' E 004°59'4 4.4
2015-Feb-28 07:33N 43°25' E 004°53'2 1.6
2015-Feb-28 06:34N 43°24' E 004°55'3 3.1
2015-Feb-28 05:33N 43°24' E 004°59'0 0.0
2015-Feb-28 04:33N 43°24' E 004°59'0 0.0
2015-Feb-28 03:33N 43°24' E 004°59'0 0.0
2015-Feb-28 02:33N 43°24' E 004°59'0 0.0
2015-Feb-28 01:33N 43°24' E 004°59'0 0.0
2015-Feb-28 00:33N 43°24' E 004°59'0 0.0
2015-Feb-27 23:33N 43°24' E 004°59'0 0.0
2015-Feb-27 22:33N 43°24' E 004°59'0 0.0
2015-Feb-27 21:33N 43°24' E 004°59'0 0.0
2015-Feb-27 20:33N 43°24' E 004°59'0 0.0
2015-Feb-27 19:33N 43°24' E 004°59'4 4.4
2015-Feb-27 18:33N 43°25' E 004°53'1 1.0
2015-Feb-27 17:33N 43°24' E 004°54'4 4.0
2015-Feb-27 16:33N 43°24' E 004°59'0 0.0
2015-Feb-27 15:33N 43°24' E 004°59'2 2.1
2015-Feb-27 14:33N 43°24' E 004°56'3 2.7
2015-Feb-27 13:33N 43°24' E 004°53'1 1.1
2015-Feb-27 12:34N 43°24' E 004°51'4 4.2
2015-Feb-27 11:33N 43°23' E 004°57'2 1.6
2015-Feb-27 10:33N 43°24' E 004°59'0 0.0
2015-Feb-27 09:33N 43°24' E 004°59'0 0.0
2015-Feb-27 08:33N 43°24' E 004°59'3 2.8
2015-Feb-27 07:33N 43°24' E 004°55'2 1.9
2015-Feb-27 06:33N 43°26' E 004°54'0 0.0
2015-Feb-27 05:33N 43°26' E 004°54'0 0.0
2015-Feb-27 04:33N 43°26' E 004°54'0 0.0
2015-Feb-27 03:33N 43°26' E 004°54'1 1.2
2015-Feb-27 02:33N 43°25' E 004°53'1 0.9
2015-Feb-27 01:33N 43°25' E 004°54'0 0.4
2015-Feb-27 00:33N 43°26' E 004°54'0 0.0
2015-Feb-26 23:33N 43°26' E 004°54'0 0.0
2015-Feb-26 22:33N 43°26' E 004°54'2 1.5
2015-Feb-26 21:34N 43°24' E 004°53'1 0.5
2015-Feb-26 20:33N 43°25' E 004°53'1 1.2
2015-Feb-26 19:33N 43°26' E 004°54'0 0.0
2015-Feb-26 18:33N 43°26' E 004°54'0 0.0
2015-Feb-26 17:33N 43°26' E 004°54'0 0.0
2015-Feb-26 16:33N 43°26' E 004°54'0 0.0
2015-Feb-26 15:33N 43°26' E 004°54'0 0.0
2015-Feb-26 14:33N 43°26' E 004°54'0 0.0
2015-Feb-26 13:33N 43°26' E 004°54'0 0.0
2015-Feb-26 12:33N 43°26' E 004°54'0 0.0
2015-Feb-26 11:33N 43°26' E 004°54'0 0.0
2015-Feb-26 10:33N 43°26' E 004°54'0 0.0
2015-Feb-26 09:33N 43°26' E 004°54'0 0.0
2015-Feb-26 08:33N 43°26' E 004°54'0 0.0
2015-Feb-26 07:33N 43°26' E 004°54'0 0.0
2015-Feb-26 06:33N 43°26' E 004°54'1 1.3
2015-Feb-26 05:33N 43°24' E 004°53'1 1.3
2015-Feb-26 04:34N 43°24' E 004°55'2 1.9
2015-Feb-26 03:33N 43°26' E 004°54'0 0.0
2015-Feb-26 02:33N 43°26' E 004°54'1 0.8
2015-Feb-26 01:33N 43°25' E 004°53'1 0.8
2015-Feb-26 00:33N 43°26' E 004°54'0 0.0
2015-Feb-25 23:33N 43°26' E 004°54'1 1.3
2015-Feb-25 22:34N 43°24' E 004°54'1 0.6
2015-Feb-25 21:33N 43°24' E 004°53'1 1.3
2015-Feb-25 20:33N 43°26' E 004°54'0 0.0
2015-Feb-25 19:33N 43°26' E 004°54'0 0.0
2015-Feb-25 18:33N 43°26' E 004°54'2 2.2
2015-Feb-25 17:33N 43°25' E 004°51'1 0.5
2015-Feb-25 16:33N 43°24' E 004°52'1 1.0
2015-Feb-25 15:33N 43°24' E 004°53'2 1.7
2015-Feb-25 14:33N 43°26' E 004°54'0 0.0
2015-Feb-25 13:33N 43°26' E 004°54'0 0.0
2015-Feb-25 12:33N 43°26' E 004°54'0 0.0
2015-Feb-25 11:33N 43°26' E 004°54'1 0.7
2015-Feb-25 10:34N 43°25' E 004°53'0 0.5
2015-Feb-25 09:33N 43°25' E 004°53'1 0.6
2015-Feb-25 08:34N 43°24' E 004°54'2 1.6
2015-Feb-25 07:33N 43°26' E 004°54'0 0.0
2015-Feb-25 06:33N 43°26' E 004°54'0 0.0
2015-Feb-25 05:33N 43°26' E 004°54'0 0.0
2015-Feb-25 04:33N 43°26' E 004°54'0 0.0
2015-Feb-25 03:33N 43°26' E 004°54'0 0.0
2015-Feb-25 02:33N 43°26' E 004°54'0 0.0
2015-Feb-25 01:33N 43°26' E 004°54'3 2.6
2015-Feb-25 00:33N 43°25' E 004°50'2 1.9
2015-Feb-24 23:33N 43°25' E 004°53'1 1.0
2015-Feb-24 22:33N 43°26' E 004°54'0 0.0
2015-Feb-24 21:33N 43°26' E 004°54'5 4.5
2015-Feb-24 20:34N 43°24' E 004°60'4 3.6
2015-Feb-24 19:34N 43°24' E 004°55'3 2.8
2015-Feb-24 18:33N 43°24' E 004°51'1 0.9
2015-Feb-24 17:33N 43°25' E 004°51'2 2.0
2015-Feb-24 16:33N 43°24' E 004°53'0 0.0
2015-Feb-24 15:33N 43°24' E 004°53'1 1.1
2015-Feb-24 14:34N 43°24' E 004°55'0 0.4
2015-Feb-24 13:34N 43°24' E 004°54'1 0.6
2015-Feb-24 12:33N 43°25' E 004°54'1 0.7
2015-Feb-24 11:33N 43°25' E 004°53'1 0.6
2015-Feb-24 10:33N 43°26' E 004°54'0 0.0
2015-Feb-24 09:33N 43°26' E 004°54'0 0.0
2015-Feb-24 08:33N 43°26' E 004°54'0 0.0
2015-Feb-24 07:33N 43°26' E 004°54'0 0.0
2015-Feb-24 06:33N 43°26' E 004°54'0 0.0
2015-Feb-24 05:33N 43°26' E 004°54'0 0.0
2015-Feb-24 04:33N 43°26' E 004°54'3 2.8
2015-Feb-24 03:33N 43°24' E 004°51'3 2.9
2015-Feb-24 02:33N 43°26' E 004°54'3 3.4
2015-Feb-24 01:33N 43°24' E 004°58'1 0.9
2015-Feb-24 00:34N 43°23' E 004°59'4 4.3
2015-Feb-23 23:33N 43°26' E 004°54'0 0.0
2015-Feb-23 22:33N 43°26' E 004°54'0 0.0
2015-Feb-23 21:33N 43°26' E 004°54'0 0.0
2015-Feb-23 20:33N 43°26' E 004°54'0 0.0
2015-Feb-23 19:33N 43°26' E 004°54'0 0.0
2015-Feb-23 18:33N 43°26' E 004°54'1 1.2
2015-Feb-23 17:33N 43°25' E 004°53'1 1.2
2015-Feb-23 16:33N 43°26' E 004°54'0 0.0
2015-Feb-23 15:33N 43°26' E 004°54'0 0.0
2015-Feb-23 14:33N 43°26' E 004°54'0 0.0
2015-Feb-23 13:33N 43°26' E 004°54'0 0.0
2015-Feb-23 12:33N 43°26' E 004°54'0 0.0
2015-Feb-23 11:33N 43°26' E 004°54'0 0.0
2015-Feb-23 10:33N 43°26' E 004°54'1 1.3
2015-Feb-23 09:33N 43°24' E 004°53'1 0.9
2015-Feb-23 08:33N 43°25' E 004°53'1 0.6
2015-Feb-23 07:33N 43°26' E 004°54'0 0.0
2015-Feb-23 06:33N 43°26' E 004°54'0 0.0
2015-Feb-23 05:33N 43°26' E 004°54'0 0.0
2015-Feb-23 04:33N 43°26' E 004°54'0 0.0
2015-Feb-23 03:33N 43°26' E 004°54'0 0.0
2015-Feb-23 02:33N 43°26' E 004°54'0 0.0
2015-Feb-23 01:33N 43°26' E 004°54'0 0.0
2015-Feb-23 00:33N 43°26' E 004°54'0 0.0
2015-Feb-22 23:33N 43°26' E 004°54'0 0.0
2015-Feb-22 22:33N 43°26' E 004°54'0 0.0
2015-Feb-22 21:33N 43°26' E 004°54'3 2.7
2015-Feb-22 20:33N 43°25' E 004°50'2 2.1
2015-Feb-22 19:33N 43°24' E 004°53'1 1.4
2015-Feb-22 18:33N 43°26' E 004°54'3 2.8
2015-Feb-22 17:34N 43°24' E 004°57'2 1.7
2015-Feb-22 16:34N 43°23' E 004°59'5 4.6
2015-Feb-22 15:34N 43°25' E 004°53'1 0.9
2015-Feb-22 14:33N 43°26' E 004°54'0 0.0
2015-Feb-22 13:33N 43°26' E 004°54'0 0.0
2015-Feb-22 12:33N 43°26' E 004°54'0 0.0
2015-Feb-22 11:33N 43°26' E 004°54'0 0.0
2015-Feb-22 10:33N 43°26' E 004°54'0 0.0
2015-Feb-22 09:33N 43°26' E 004°54'0 0.0
2015-Feb-22 08:33N 43°26' E 004°54'0 0.0
2015-Feb-22 07:33N 43°26' E 004°54'0 0.0
2015-Feb-22 06:33N 43°26' E 004°54'0 0.0
2015-Feb-22 05:33N 43°26' E 004°54'0 0.0
2015-Feb-22 04:33N 43°26' E 004°54'0 0.0
2015-Feb-22 03:33N 43°26' E 004°54'2 2.5
2015-Feb-22 02:33N 43°25' E 004°51'0 0.4
2015-Feb-22 01:33N 43°25' E 004°50'3 2.6
2015-Feb-22 00:33N 43°26' E 004°54'0 0.0
2015-Feb-21 23:33N 43°26' E 004°54'0 0.0
2015-Feb-21 22:33N 43°26' E 004°54'1 1.3
2015-Feb-21 21:33N 43°24' E 004°53'0 0.4
2015-Feb-21 20:33N 43°24' E 004°54'2 1.6
2015-Feb-21 19:33N 43°26' E 004°54'0 0.0
2015-Feb-21 18:33N 43°26' E 004°54'0 0.0
2015-Feb-21 17:33N 43°26' E 004°54'0 0.0
2015-Feb-21 16:33N 43°26' E 004°54'0 0.0
2015-Feb-21 15:33N 43°26' E 004°54'0 0.0
2015-Feb-21 14:33N 43°26' E 004°54'0 0.0
2015-Feb-21 13:33N 43°26' E 004°54'0 0.0
2015-Feb-21 12:33N 43°26' E 004°54'2 2.0
2015-Feb-21 11:33N 43°24' E 004°52'1 0.9
2015-Feb-21 10:33N 43°24' E 004°53'0 0.3
2015-Feb-21 09:33N 43°24' E 004°53'4 4.4
2015-Feb-21 08:33N 43°24' E 004°59'0 0.1
2015-Feb-21 07:33N 43°24' E 004°59'3 2.8
2015-Feb-21 06:34N 43°24' E 004°55'2 1.7
2015-Feb-21 05:33N 43°25' E 004°53'1 1.2
2015-Feb-21 04:33N 43°26' E 004°54'0 0.0
2015-Feb-21 03:33N 43°26' E 004°54'0 0.0
2015-Feb-21 02:33N 43°26' E 004°54'0 0.0
2015-Feb-21 01:33N 43°26' E 004°54'0 0.0
2015-Feb-21 00:33N 43°26' E 004°54'0 0.0
2015-Feb-20 23:33N 43°26' E 004°54'2 1.8
2015-Feb-20 22:33N 43°24' E 004°53'1 0.5
2015-Feb-20 21:33N 43°24' E 004°52'1 0.6
2015-Feb-20 20:33N 43°24' E 004°51'2 2.1
2015-Feb-20 19:33N 43°25' E 004°53'1 0.7
2015-Feb-20 18:33N 43°26' E 004°54'0 0.0
2015-Feb-20 17:33N 43°26' E 004°54'0 0.0
2015-Feb-20 16:33N 43°26' E 004°54'0 0.0
2015-Feb-20 15:33N 43°26' E 004°54'0 0.0
2015-Feb-20 14:33N 43°26' E 004°54'0 0.0
2015-Feb-20 13:33N 43°26' E 004°54'0 0.0
2015-Feb-20 12:33N 43°26' E 004°54'0 0.0
2015-Feb-20 11:33N 43°26' E 004°54'0 0.0
2015-Feb-20 10:33N 43°26' E 004°54'0 0.0
2015-Feb-20 09:33N 43°26' E 004°54'0 0.0
2015-Feb-20 08:33N 43°26' E 004°54'0 0.0
2015-Feb-20 07:33N 43°26' E 004°54'0 0.0
2015-Feb-20 06:33N 43°26' E 004°54'0 0.0
2015-Feb-20 05:33N 43°26' E 004°54'0 0.0
2015-Feb-20 04:33N 43°26' E 004°54'0 0.0
2015-Feb-20 03:33N 43°26' E 004°54'0 0.0
2015-Feb-20 02:33N 43°26' E 004°54'0 0.0
2015-Feb-20 01:33N 43°26' E 004°54'0 0.0
2015-Feb-20 00:33N 43°26' E 004°54'0 0.0
2015-Feb-19 23:33N 43°26' E 004°54'0 0.0
2015-Feb-19 22:33N 43°26' E 004°54'0 0.0
2015-Feb-19 21:33N 43°26' E 004°54'0 0.0
2015-Feb-19 20:33N 43°26' E 004°54'1 0.9
2015-Feb-19 19:33N 43°25' E 004°53'1 0.9
2015-Feb-19 18:33N 43°26' E 004°54'0 0.0
2015-Feb-19 17:33N 43°26' E 004°54'0 0.0
2015-Feb-19 16:33N 43°26' E 004°54'1 1.1
2015-Feb-19 15:33N 43°25' E 004°53'1 1.1
2015-Feb-19 14:33N 43°24' E 004°54'2 1.7
2015-Feb-19 13:33N 43°26' E 004°54'0 0.0
2015-Feb-19 12:33N 43°26' E 004°54'0 0.0
2015-Feb-19 11:33N 43°26' E 004°54'  
Track history (hours):
 
Tides and Currents Weather Stations Pressure Air Temp Water Temp Dewpoint Dewpoint Depression Visibility Wind Speed Wind Dir Waves Ship Positions

Marseillais 6

Last reported at 2015-Mar-01 11:33 UTC. Time now 2015-Mar-01 12:32 UTC.
Position N 43°24' E 004°59'.

Length 35 m; draft 5 m.

Type: Tug. MMSI: 227016900.

Date/timePositionNaut miles runAvg speedWind from/ knotsBaromVisibWave heightAir tempDewpointWater temp
2015-Mar-01 11:33N 43°24' E 004°59'0 0.0
2015-Mar-01 10:33N 43°24' E 004°59'0 0.0
2015-Mar-01 09:33N 43°24' E 004°59'0 0.0
2015-Mar-01 08:33N 43°24' E 004°59'0 0.0
2015-Mar-01 07:33N 43°24' E 004°59'0 0.0
2015-Mar-01 06:34N 43°24' E 004°59'6 6.1
2015-Mar-01 05:33N 43°25' E 004°51'3 3.0
2015-Mar-01 04:34N 43°24' E 004°55'3 3.1
2015-Mar-01 03:33N 43°24' E 004°59'0 0.0
2015-Mar-01 02:33N 43°24' E 004°59'0 0.0
2015-Mar-01 01:33N 43°24' E 004°59'0 0.0
2015-Mar-01 00:33N 43°24' E 004°59'0 0.0
2015-Feb-28 23:33N 43°24' E 004°59'0 0.0
2015-Feb-28 22:33N 43°24' E 004°59'0 0.0
2015-Feb-28 21:33N 43°24' E 004°59'0 0.0
2015-Feb-28 20:33N 43°24' E 004°59'0 0.0
2015-Feb-28 19:33N 43°24' E 004°59'0 0.0
2015-Feb-28 18:33N 43°24' E 004°59'2 2.1
2015-Feb-28 17:33N 43°24' E 004°56'3 2.9
2015-Feb-28 16:34N 43°25' E 004°53'3 3.1
2015-Feb-28 15:33N 43°24' E 004°56'2 2.2
2015-Feb-28 14:33N 43°24' E 004°53'4 3.8
2015-Feb-28 13:33N 43°23' E 004°59'1 0.7
2015-Feb-28 12:33N 43°24' E 004°59'0 0.0
2015-Feb-28 11:33N 43°24' E 004°59'0 0.0
2015-Feb-28 10:33N 43°24' E 004°59'0 0.0
2015-Feb-28 09:33N 43°24' E 004°59'0 0.0
2015-Feb-28 08:33N 43°24' E 004°59'4 4.4
2015-Feb-28 07:33N 43°25' E 004°53'2 1.6
2015-Feb-28 06:34N 43°24' E 004°55'3 3.1
2015-Feb-28 05:33N 43°24' E 004°59'0 0.0
2015-Feb-28 04:33N 43°24' E 004°59'0 0.0
2015-Feb-28 03:33N 43°24' E 004°59'0 0.0
2015-Feb-28 02:33N 43°24' E 004°59'0 0.0
2015-Feb-28 01:33N 43°24' E 004°59'0 0.0
2015-Feb-28 00:33N 43°24' E 004°59'0 0.0
2015-Feb-27 23:33N 43°24' E 004°59'0 0.0
2015-Feb-27 22:33N 43°24' E 004°59'0 0.0
2015-Feb-27 21:33N 43°24' E 004°59'0 0.0
2015-Feb-27 20:33N 43°24' E 004°59'0 0.0
2015-Feb-27 19:33N 43°24' E 004°59'4 4.4
2015-Feb-27 18:33N 43°25' E 004°53'1 1.0
2015-Feb-27 17:33N 43°24' E 004°54'4 4.0
2015-Feb-27 16:33N 43°24' E 004°59'0 0.0
2015-Feb-27 15:33N 43°24' E 004°59'2 2.1
2015-Feb-27 14:33N 43°24' E 004°56'3 2.7
2015-Feb-27 13:33N 43°24' E 004°53'1 1.1
2015-Feb-27 12:34N 43°24' E 004°51'4 4.2
2015-Feb-27 11:33N 43°23' E 004°57'2 1.6
2015-Feb-27 10:33N 43°24' E 004°59'0 0.0
2015-Feb-27 09:33N 43°24' E 004°59'0 0.0
2015-Feb-27 08:33N 43°24' E 004°59'3 2.8
2015-Feb-27 07:33N 43°24' E 004°55'2 1.9
2015-Feb-27 06:33N 43°26' E 004°54'0 0.0
2015-Feb-27 05:33N 43°26' E 004°54'0 0.0
2015-Feb-27 04:33N 43°26' E 004°54'0 0.0
2015-Feb-27 03:33N 43°26' E 004°54'1 1.2
2015-Feb-27 02:33N 43°25' E 004°53'1 0.9
2015-Feb-27 01:33N 43°25' E 004°54'0 0.4
2015-Feb-27 00:33N 43°26' E 004°54'0 0.0
2015-Feb-26 23:33N 43°26' E 004°54'0 0.0
2015-Feb-26 22:33N 43°26' E 004°54'2 1.5
2015-Feb-26 21:34N 43°24' E 004°53'1 0.5
2015-Feb-26 20:33N 43°25' E 004°53'1 1.2
2015-Feb-26 19:33N 43°26' E 004°54'0 0.0
2015-Feb-26 18:33N 43°26' E 004°54'0 0.0
2015-Feb-26 17:33N 43°26' E 004°54'0 0.0
2015-Feb-26 16:33N 43°26' E 004°54'0 0.0
2015-Feb-26 15:33N 43°26' E 004°54'0 0.0
2015-Feb-26 14:33N 43°26' E 004°54'0 0.0
2015-Feb-26 13:33N 43°26' E 004°54'0 0.0
2015-Feb-26 12:33N 43°26' E 004°54'0 0.0
2015-Feb-26 11:33N 43°26' E 004°54'0 0.0
2015-Feb-26 10:33N 43°26' E 004°54'0 0.0
2015-Feb-26 09:33N 43°26' E 004°54'0 0.0
2015-Feb-26 08:33N 43°26' E 004°54'0 0.0
2015-Feb-26 07:33N 43°26' E 004°54'0 0.0
2015-Feb-26 06:33N 43°26' E 004°54'1 1.3
2015-Feb-26 05:33N 43°24' E 004°53'1 1.3
2015-Feb-26 04:34N 43°24' E 004°55'2 1.9
2015-Feb-26 03:33N 43°26' E 004°54'0 0.0
2015-Feb-26 02:33N 43°26' E 004°54'1 0.8
2015-Feb-26 01:33N 43°25' E 004°53'1 0.8
2015-Feb-26 00:33N 43°26' E 004°54'0 0.0
2015-Feb-25 23:33N 43°26' E 004°54'1 1.3
2015-Feb-25 22:34N 43°24' E 004°54'1 0.6
2015-Feb-25 21:33N 43°24' E 004°53'1 1.3
2015-Feb-25 20:33N 43°26' E 004°54'0 0.0
2015-Feb-25 19:33N 43°26' E 004°54'0 0.0
2015-Feb-25 18:33N 43°26' E 004°54'2 2.2
2015-Feb-25 17:33N 43°25' E 004°51'1 0.5
2015-Feb-25 16:33N 43°24' E 004°52'1 1.0
2015-Feb-25 15:33N 43°24' E 004°53'2 1.7
2015-Feb-25 14:33N 43°26' E 004°54'0 0.0
2015-Feb-25 13:33N 43°26' E 004°54'0 0.0
2015-Feb-25 12:33N 43°26' E 004°54'0 0.0
2015-Feb-25 11:33N 43°26' E 004°54'1 0.7
2015-Feb-25 10:34N 43°25' E 004°53'0 0.5
2015-Feb-25 09:33N 43°25' E 004°53'1 0.6
2015-Feb-25 08:34N 43°24' E 004°54'2 1.6
2015-Feb-25 07:33N 43°26' E 004°54'0 0.0
2015-Feb-25 06:33N 43°26' E 004°54'0 0.0
2015-Feb-25 05:33N 43°26' E 004°54'0 0.0
2015-Feb-25 04:33N 43°26' E 004°54'0 0.0
2015-Feb-25 03:33N 43°26' E 004°54'0 0.0
2015-Feb-25 02:33N 43°26' E 004°54'0 0.0
2015-Feb-25 01:33N 43°26' E 004°54'3 2.6
2015-Feb-25 00:33N 43°25' E 004°50'2 1.9
2015-Feb-24 23:33N 43°25' E 004°53'1 1.0
2015-Feb-24 22:33N 43°26' E 004°54'0 0.0
2015-Feb-24 21:33N 43°26' E 004°54'5 4.5
2015-Feb-24 20:34N 43°24' E 004°60'4 3.6
2015-Feb-24 19:34N 43°24' E 004°55'3 2.8
2015-Feb-24 18:33N 43°24' E 004°51'1 0.9
2015-Feb-24 17:33N 43°25' E 004°51'2 2.0
2015-Feb-24 16:33N 43°24' E 004°53'0 0.0
2015-Feb-24 15:33N 43°24' E 004°53'1 1.1
2015-Feb-24 14:34N 43°24' E 004°55'0 0.4
2015-Feb-24 13:34N 43°24' E 004°54'1 0.6
2015-Feb-24 12:33N 43°25' E 004°54'1 0.7
2015-Feb-24 11:33N 43°25' E 004°53'1 0.6
2015-Feb-24 10:33N 43°26' E 004°54'0 0.0
2015-Feb-24 09:33N 43°26' E 004°54'0 0.0
2015-Feb-24 08:33N 43°26' E 004°54'0 0.0
2015-Feb-24 07:33N 43°26' E 004°54'0 0.0
2015-Feb-24 06:33N 43°26' E 004°54'0 0.0
2015-Feb-24 05:33N 43°26' E 004°54'0 0.0
2015-Feb-24 04:33N 43°26' E 004°54'3 2.8
2015-Feb-24 03:33N 43°24' E 004°51'3 2.9
2015-Feb-24 02:33N 43°26' E 004°54'3 3.4
2015-Feb-24 01:33N 43°24' E 004°58'1 0.9
2015-Feb-24 00:34N 43°23' E 004°59'4 4.3
2015-Feb-23 23:33N 43°26' E 004°54'0 0.0
2015-Feb-23 22:33N 43°26' E 004°54'0 0.0
2015-Feb-23 21:33N 43°26' E 004°54'0 0.0
2015-Feb-23 20:33N 43°26' E 004°54'0 0.0
2015-Feb-23 19:33N 43°26' E 004°54'0 0.0
2015-Feb-23 18:33N 43°26' E 004°54'1 1.2
2015-Feb-23 17:33N 43°25' E 004°53'1 1.2
2015-Feb-23 16:33N 43°26' E 004°54'0 0.0
2015-Feb-23 15:33N 43°26' E 004°54'0 0.0
2015-Feb-23 14:33N 43°26' E 004°54'0 0.0
2015-Feb-23 13:33N 43°26' E 004°54'0 0.0
2015-Feb-23 12:33N 43°26' E 004°54'0 0.0
2015-Feb-23 11:33N 43°26' E 004°54'0 0.0
2015-Feb-23 10:33N 43°26' E 004°54'1 1.3
2015-Feb-23 09:33N 43°24' E 004°53'1 0.9
2015-Feb-23 08:33N 43°25' E 004°53'1 0.6
2015-Feb-23 07:33N 43°26' E 004°54'0 0.0
2015-Feb-23 06:33N 43°26' E 004°54'0 0.0
2015-Feb-23 05:33N 43°26' E 004°54'0 0.0
2015-Feb-23 04:33N 43°26' E 004°54'0 0.0
2015-Feb-23 03:33N 43°26' E 004°54'0 0.0
2015-Feb-23 02:33N 43°26' E 004°54'0 0.0
2015-Feb-23 01:33N 43°26' E 004°54'0 0.0
2015-Feb-23 00:33N 43°26' E 004°54'0 0.0
2015-Feb-22 23:33N 43°26' E 004°54'0 0.0
2015-Feb-22 22:33N 43°26' E 004°54'0 0.0
2015-Feb-22 21:33N 43°26' E 004°54'3 2.7
2015-Feb-22 20:33N 43°25' E 004°50'2 2.1
2015-Feb-22 19:33N 43°24' E 004°53'1 1.4
2015-Feb-22 18:33N 43°26' E 004°54'3 2.8
2015-Feb-22 17:34N 43°24' E 004°57'2 1.7
2015-Feb-22 16:34N 43°23' E 004°59'5 4.6
2015-Feb-22 15:34N 43°25' E 004°53'1 0.9
2015-Feb-22 14:33N 43°26' E 004°54'0 0.0
2015-Feb-22 13:33N 43°26' E 004°54'0 0.0
2015-Feb-22 12:33N 43°26' E 004°54'0 0.0
2015-Feb-22 11:33N 43°26' E 004°54'0 0.0
2015-Feb-22 10:33N 43°26' E 004°54'0 0.0
2015-Feb-22 09:33N 43°26' E 004°54'0 0.0
2015-Feb-22 08:33N 43°26' E 004°54'0 0.0
2015-Feb-22 07:33N 43°26' E 004°54'0 0.0
2015-Feb-22 06:33N 43°26' E 004°54'0 0.0
2015-Feb-22 05:33N 43°26' E 004°54'0 0.0
2015-Feb-22 04:33N 43°26' E 004°54'0 0.0
2015-Feb-22 03:33N 43°26' E 004°54'2 2.5
2015-Feb-22 02:33N 43°25' E 004°51'0 0.4
2015-Feb-22 01:33N 43°25' E 004°50'3 2.6
2015-Feb-22 00:33N 43°26' E 004°54'0 0.0
2015-Feb-21 23:33N 43°26' E 004°54'0 0.0
2015-Feb-21 22:33N 43°26' E 004°54'1 1.3
2015-Feb-21 21:33N 43°24' E 004°53'0 0.4
2015-Feb-21 20:33N 43°24' E 004°54'2 1.6
2015-Feb-21 19:33N 43°26' E 004°54'0 0.0
2015-Feb-21 18:33N 43°26' E 004°54'0 0.0
2015-Feb-21 17:33N 43°26' E 004°54'0 0.0
2015-Feb-21 16:33N 43°26' E 004°54'0 0.0
2015-Feb-21 15:33N 43°26' E 004°54'0 0.0
2015-Feb-21 14:33N 43°26' E 004°54'0 0.0
2015-Feb-21 13:33N 43°26' E 004°54'0 0.0
2015-Feb-21 12:33N 43°26' E 004°54'2 2.0
2015-Feb-21 11:33N 43°24' E 004°52'1 0.9
2015-Feb-21 10:33N 43°24' E 004°53'0 0.3
2015-Feb-21 09:33N 43°24' E 004°53'4 4.4
2015-Feb-21 08:33N 43°24' E 004°59'0 0.1
2015-Feb-21 07:33N 43°24' E 004°59'3 2.8
2015-Feb-21 06:34N 43°24' E 004°55'2 1.7
2015-Feb-21 05:33N 43°25' E 004°53'1 1.2
2015-Feb-21 04:33N 43°26' E 004°54'0 0.0
2015-Feb-21 03:33N 43°26' E 004°54'0 0.0
2015-Feb-21 02:33N 43°26' E 004°54'0 0.0
2015-Feb-21 01:33N 43°26' E 004°54'0 0.0
2015-Feb-21 00:33N 43°26' E 004°54'0 0.0
2015-Feb-20 23:33N 43°26' E 004°54'2 1.8
2015-Feb-20 22:33N 43°24' E 004°53'1 0.5
2015-Feb-20 21:33N 43°24' E 004°52'1 0.6
2015-Feb-20 20:33N 43°24' E 004°51'2 2.1
2015-Feb-20 19:33N 43°25' E 004°53'1 0.7
2015-Feb-20 18:33N 43°26' E 004°54'0 0.0
2015-Feb-20 17:33N 43°26' E 004°54'0 0.0
2015-Feb-20 16:33N 43°26' E 004°54'0 0.0
2015-Feb-20 15:33N 43°26' E 004°54'0 0.0
2015-Feb-20 14:33N 43°26' E 004°54'0 0.0
2015-Feb-20 13:33N 43°26' E 004°54'0 0.0
2015-Feb-20 12:33N 43°26' E 004°54'0 0.0
2015-Feb-20 11:33N 43°26' E 004°54'0 0.0
2015-Feb-20 10:33N 43°26' E 004°54'0 0.0
2015-Feb-20 09:33N 43°26' E 004°54'0 0.0
2015-Feb-20 08:33N 43°26' E 004°54'0 0.0
2015-Feb-20 07:33N 43°26' E 004°54'0 0.0
2015-Feb-20 06:33N 43°26' E 004°54'0 0.0
2015-Feb-20 05:33N 43°26' E 004°54'0 0.0
2015-Feb-20 04:33N 43°26' E 004°54'0 0.0
2015-Feb-20 03:33N 43°26' E 004°54'0 0.0
2015-Feb-20 02:33N 43°26' E 004°54'0 0.0
2015-Feb-20 01:33N 43°26' E 004°54'0 0.0
2015-Feb-20 00:33N 43°26' E 004°54'0 0.0
2015-Feb-19 23:33N 43°26' E 004°54'0 0.0
2015-Feb-19 22:33N 43°26' E 004°54'0 0.0
2015-Feb-19 21:33N 43°26' E 004°54'0 0.0
2015-Feb-19 20:33N 43°26' E 004°54'1 0.9
2015-Feb-19 19:33N 43°25' E 004°53'1 0.9
2015-Feb-19 18:33N 43°26' E 004°54'0 0.0
2015-Feb-19 17:33N 43°26' E 004°54'0 0.0
2015-Feb-19 16:33N 43°26' E 004°54'1 1.1
2015-Feb-19 15:33N 43°25' E 004°53'1 1.1
2015-Feb-19 14:33N 43°24' E 004°54'2 1.7
2015-Feb-19 13:33N 43°26' E 004°54'0 0.0
2015-Feb-19 12:33N 43°26' E 004°54'0 0.0
2015-Feb-19 11:33N 43°26' E 004°54'  

Dump ship's entire track history